Time;durP1;ratioP1;P1;durP2;ratioP2;P2;SDS_P1;SDS_P2;PMS_P1;PMS_P2;Temp;Humidity;BMP_temperature;BMP_pressure;BME280_temperature;BME280_humidity;BME280_pressure;Samples;Min_cycle;Max_cycle;Signal;HPM_P1;HPM_P2
2023/08/03 00:02:22;;;;;;;46.13;43.17;;;15.40;93.70;;;;;;5089091;28;20514;-93
2023/08/03 00:04:47;;;;;;;46.20;43.03;;;15.40;93.70;;;;;;5088244;28;20191;-94
2023/08/03 00:07:13;;;;;;;45.92;42.75;;;15.40;93.70;;;;;;5090207;28;20175;-94
2023/08/03 00:09:39;;;;;;;49.45;45.80;;;15.50;93.80;;;;;;5088430;28;20183;-93
2023/08/03 00:12:06;;;;;;;47.00;43.60;;;15.50;93.80;;;;;;5081887;28;20175;-90
2023/08/03 00:14:32;;;;;;;47.20;43.90;;;15.50;93.80;;;;;;5087156;28;20263;-93
2023/08/03 00:16:57;;;;;;;48.17;44.63;;;15.50;93.80;;;;;;5090596;28;20175;-93
2023/08/03 00:19:23;;;;;;;47.45;44.05;;;15.50;93.80;;;;;;5089475;28;20225;-93
2023/08/03 00:21:48;;;;;;;45.88;42.58;;;15.50;93.80;;;;;;5089467;28;20625;-94
2023/08/03 00:24:14;;;;;;;40.85;38.25;;;15.60;93.80;;;;;;5090462;28;20196;-94
2023/08/03 00:26:40;;;;;;;42.72;39.00;;;15.60;94.00;;;;;;5087898;28;20594;-94
2023/08/03 00:29:05;;;;;;;55.67;51.47;;;15.60;94.20;;;;;;5091305;28;20199;-94
2023/08/03 00:31:31;;;;;;;62.90;58.90;;;15.60;94.40;;;;;;5087787;28;20183;-93
2023/08/03 00:33:56;;;;;;;69.28;64.80;;;15.50;94.60;;;;;;5083368;28;20282;-93
2023/08/03 00:36:22;;;;;;;52.33;48.97;;;15.50;94.80;;;;;;5084902;28;20187;-94
2023/08/03 00:38:47;;;;;;;44.55;41.60;;;15.50;94.80;;;;;;5093719;28;20207;-94
2023/08/03 00:41:13;;;;;;;44.95;41.53;;;15.50;94.80;;;;;;5092283;28;20190;-94
2023/08/03 00:43:38;;;;;;;70.18;65.45;;;15.50;94.90;;;;;;5086068;28;20182;-93
2023/08/03 00:46:04;;;;;;;72.97;68.30;;;15.50;94.90;;;;;;5082801;28;20179;-94
2023/08/03 00:48:29;;;;;;;47.30;43.42;;;15.50;95.00;;;;;;5086229;28;20179;-94
2023/08/03 00:50:55;;;;;;;46.63;43.10;;;15.50;95.10;;;;;;5085915;28;20183;-94
2023/08/03 00:53:21;;;;;;;52.30;48.58;;;15.50;95.10;;;;;;5083000;28;20175;-94
2023/08/03 00:55:46;;;;;;;72.53;67.47;;;15.60;95.10;;;;;;5085875;28;20194;-94
2023/08/03 00:58:12;;;;;;;74.88;69.88;;;15.50;95.10;;;;;;5091538;28;20198;-94
2023/08/03 01:00:37;;;;;;;48.65;45.13;;;15.50;95.20;;;;;;5087347;28;20167;-94
2023/08/03 01:03:03;;;;;;;42.15;39.58;;;15.60;95.20;;;;;;5095596;28;20171;-93
2023/08/03 01:05:30;;;;;;;40.42;37.85;;;15.60;95.30;;;;;;5098619;28;20183;-94
2023/08/03 01:07:56;;;;;;;41.75;38.75;;;15.60;95.30;;;;;;5099016;27;20173;-94
2023/08/03 01:10:21;;;;;;;39.97;37.47;;;15.60;95.40;;;;;;5096901;28;20176;-93
2023/08/03 01:12:47;;;;;;;39.60;37.10;;;15.60;95.40;;;;;;5098291;28;20169;-93
2023/08/03 01:15:12;;;;;;;39.67;37.10;;;15.60;95.50;;;;;;5093903;28;20193;-94
2023/08/03 01:17:38;;;;;;;39.20;36.60;;;15.60;95.50;;;;;;5090304;28;20179;-94
2023/08/03 01:20:04;;;;;;;38.42;36.05;;;15.60;95.60;;;;;;5090432;28;20198;-94
2023/08/03 01:22:37;;;;;;;39.50;36.88;;;15.60;95.60;;;;;;5095047;28;20199;-94
2023/08/03 01:25:03;;;;;;;38.95;36.25;;;15.60;95.60;;;;;;5096137;28;20206;-93
2023/08/03 01:27:28;;;;;;;39.40;36.60;;;15.60;95.70;;;;;;5093087;28;20251;-94
2023/08/03 01:29:54;;;;;;;41.22;38.42;;;15.50;95.70;;;;;;5095164;28;20174;-95
2023/08/03 01:32:19;;;;;;;42.08;39.25;;;15.60;95.70;;;;;;5098861;28;20206;-95
2023/08/03 01:34:45;;;;;;;42.45;39.58;;;15.50;95.70;;;;;;5098070;28;20217;-94
2023/08/03 01:37:10;;;;;;;41.33;38.65;;;15.60;95.80;;;;;;5086854;28;20243;-94
2023/08/03 01:39:36;;;;;;;43.20;40.28;;;15.60;95.80;;;;;;5095044;28;20211;-94
2023/08/03 01:42:02;;;;;;;42.75;40.03;;;15.60;95.80;;;;;;5092949;28;20175;-94
2023/08/03 01:44:30;;;;;;;42.80;39.63;;;15.50;95.80;;;;;;5094649;28;20191;-94
2023/08/03 01:46:58;;;;;;;43.03;40.38;;;15.60;95.90;;;;;;5095883;28;20183;-94
2023/08/03 01:49:27;;;;;;;43.72;40.58;;;15.60;95.90;;;;;;5096410;28;20207;-94
2023/08/03 01:51:53;;;;;;;46.58;43.53;;;15.60;95.90;;;;;;5097225;28;20203;-95
2023/08/03 01:54:18;;;;;;;47.30;44.13;;;15.50;95.90;;;;;;5096879;28;20214;-94
2023/08/03 01:56:44;;;;;;;46.65;43.47;;;15.40;95.90;;;;;;5098081;28;20186;-94
2023/08/03 01:59:10;;;;;;;44.95;41.88;;;15.50;95.90;;;;;;5097465;28;20210;-94
2023/08/03 02:01:37;;;;;;;46.65;43.80;;;15.40;95.90;;;;;;5097488;28;20180;-94
2023/08/03 02:04:02;;;;;;;47.05;44.05;;;15.50;96.00;;;;;;5098304;28;20211;-94
2023/08/03 02:06:28;;;;;;;49.55;46.55;;;15.50;96.00;;;;;;5098509;28;20156;-91
2023/08/03 02:08:53;;;;;;;48.25;44.97;;;15.50;96.00;;;;;;5098278;28;20218;-92
2023/08/03 02:11:19;;;;;;;50.17;46.85;;;15.50;96.00;;;;;;5098451;28;20179;-94
2023/08/03 02:13:45;;;;;;;49.63;46.17;;;15.60;96.10;;;;;;5097673;28;20199;-94
2023/08/03 02:16:10;;;;;;;49.90;45.90;;;15.50;96.10;;;;;;5096825;28;20151;-94
2023/08/03 02:18:39;;;;;;;46.17;43.30;;;15.60;96.10;;;;;;5096079;28;20233;-95
2023/08/03 02:21:06;;;;;;;47.70;44.53;;;15.50;96.10;;;;;;5090889;28;20188;-94
2023/08/03 02:23:32;;;;;;;48.05;44.88;;;15.50;96.10;;;;;;5096322;28;20190;-92
2023/08/03 02:25:58;;;;;;;48.75;44.88;;;15.60;96.10;;;;;;5097212;28;20182;-93
2023/08/03 02:28:23;;;;;;;48.88;45.53;;;15.50;96.10;;;;;;5097677;28;20171;-94
2023/08/03 02:30:49;;;;;;;48.45;44.78;;;15.60;96.10;;;;;;5096160;28;20233;-94
2023/08/03 02:33:15;;;;;;;47.97;44.20;;;15.60;96.10;;;;;;5097151;28;20187;-94
2023/08/03 02:35:40;;;;;;;47.70;44.40;;;15.60;96.20;;;;;;5095989;28;20203;-94
2023/08/03 02:38:06;;;;;;;44.83;42.08;;;15.70;96.20;;;;;;5097798;28;20172;-93
2023/08/03 02:40:32;;;;;;;46.30;43.17;;;15.70;96.20;;;;;;5097348;28;20187;-94
2023/08/03 02:42:58;;;;;;;47.35;43.88;;;15.70;96.20;;;;;;5096989;28;20205;-94
2023/08/03 02:45:23;;;;;;;50.78;46.85;;;15.70;96.20;;;;;;5097517;28;20221;-94
2023/08/03 02:47:49;;;;;;;49.78;46.28;;;15.60;96.10;;;;;;5095752;28;20191;-94
2023/08/03 02:50:15;;;;;;;50.55;46.35;;;15.60;96.10;;;;;;5095417;28;20186;-95
2023/08/03 02:52:40;;;;;;;49.17;45.83;;;15.70;96.20;;;;;;5094268;28;20246;-94
2023/08/03 02:55:06;;;;;;;49.30;45.47;;;15.70;96.20;;;;;;5096760;28;20209;-91
2023/08/03 02:57:31;;;;;;;48.92;45.15;;;15.70;96.20;;;;;;5095433;28;20645;-94
2023/08/03 02:59:57;;;;;;;48.92;45.85;;;15.70;96.20;;;;;;5095002;28;20235;-94
2023/08/03 03:02:23;;;;;;;48.47;44.85;;;15.70;96.20;;;;;;5093770;28;20179;-94
2023/08/03 03:04:51;;;;;;;48.45;44.92;;;15.70;96.20;;;;;;5092657;28;20179;-94
2023/08/03 03:07:17;;;;;;;51.33;47.28;;;15.70;96.10;;;;;;5092749;28;20171;-93
2023/08/03 03:09:42;;;;;;;51.38;47.92;;;15.70;96.10;;;;;;5089682;28;20262;-94
2023/08/03 03:12:08;;;;;;;51.20;47.97;;;15.70;96.10;;;;;;5089885;28;20556;-94
2023/08/03 03:14:37;;;;;;;52.08;48.08;;;15.70;96.10;;;;;;5097079;28;20262;-94
2023/08/03 03:17:03;;;;;;;49.55;46.33;;;15.70;96.10;;;;;;5098293;28;20160;-94
2023/08/03 03:19:29;;;;;;;51.00;47.22;;;15.70;96.10;;;;;;5097993;28;20214;-94
2023/08/03 03:21:54;;;;;;;48.75;45.53;;;15.70;96.10;;;;;;5096108;28;20266;-94
2023/08/03 03:24:20;;;;;;;50.03;46.53;;;15.70;96.10;;;;;;5097467;28;20250;-94
2023/08/03 03:26:45;;;;;;;50.38;46.80;;;15.70;96.10;;;;;;5101235;28;20160;-94
2023/08/03 03:31:52;;;;;;;52.08;48.78;;;15.80;96.10;;;;;;5525253;22;20219;-94
2023/08/03 03:34:17;;;;;;;50.60;47.28;;;15.80;96.00;;;;;;5025474;28;20216;-94
2023/08/03 03:36:43;;;;;;;53.75;49.72;;;15.70;96.00;;;;;;5025442;28;20161;-90
2023/08/03 03:39:08;;;;;;;54.55;50.22;;;15.80;96.00;;;;;;5024189;28;20201;-93
2023/08/03 03:41:34;;;;;;;53.85;50.00;;;15.80;96.00;;;;;;5021075;28;20185;-94
2023/08/03 03:44:00;;;;;;;54.42;51.00;;;15.80;96.00;;;;;;5023874;28;20189;-93
2023/08/03 03:46:25;;;;;;;55.35;51.85;;;15.80;96.00;;;;;;5024934;28;20184;-93
2023/08/03 03:48:51;;;;;;;81.00;76.10;;;15.80;96.00;;;;;;5024536;28;20165;-93
2023/08/03 03:51:19;;;;;;;84.53;78.97;;;15.80;96.00;;;;;;5024616;28;20158;-94
2023/08/03 03:53:44;;;;;;;56.60;53.00;;;15.80;96.00;;;;;;5024798;28;20174;-93
2023/08/03 03:56:10;;;;;;;57.45;53.40;;;15.80;96.00;;;;;;5025145;28;20173;-91
2023/08/03 03:58:35;;;;;;;61.25;56.80;;;15.80;96.00;;;;;;5024956;28;20213;-91
2023/08/03 04:01:01;;;;;;;83.72;78.18;;;15.80;96.00;;;;;;5024832;28;20166;-94
2023/08/03 04:03:27;;;;;;;83.85;78.55;;;15.80;96.00;;;;;;5024593;28;20166;-92
2023/08/03 04:05:53;;;;;;;58.60;54.35;;;15.80;96.00;;;;;;5023663;28;20213;-94
2023/08/03 04:08:19;;;;;;;58.03;54.28;;;15.80;96.00;;;;;;5023992;28;20220;-94
2023/08/03 04:10:44;;;;;;;57.70;53.85;;;15.90;96.00;;;;;;5024291;28;20169;-92
2023/08/03 04:13:10;;;;;;;57.13;53.13;;;15.80;96.00;;;;;;5024860;28;20232;-93
2023/08/03 04:15:36;;;;;;;57.03;53.17;;;15.80;96.00;;;;;;5024513;28;20193;-94
2023/08/03 04:18:01;;;;;;;57.78;54.00;;;15.90;96.00;;;;;;5023728;28;20161;-94
2023/08/03 04:20:27;;;;;;;55.40;51.70;;;15.80;96.00;;;;;;5022221;28;20209;-94
2023/08/03 04:22:52;;;;;;;56.75;52.67;;;15.90;96.00;;;;;;5023069;28;20250;-93
2023/08/03 04:25:21;;;;;;;56.17;52.67;;;15.90;96.00;;;;;;5023239;28;20192;-93
2023/08/03 04:27:46;;;;;;;56.78;53.05;;;15.90;96.10;;;;;;5023470;28;20217;-93
2023/08/03 04:30:13;;;;;;;54.58;51.22;;;15.90;96.10;;;;;;5022901;28;20166;-93
2023/08/03 04:32:39;;;;;;;56.22;52.42;;;15.90;96.00;;;;;;5023839;28;20189;-93
2023/08/03 04:35:06;;;;;;;49.35;45.80;;;15.90;96.00;;;;;;5023680;28;20262;-92
2023/08/03 04:37:31;;;;;;;48.05;44.80;;;15.90;96.00;;;;;;5023434;28;20190;-94
2023/08/03 04:39:57;;;;;;;48.47;45.45;;;15.90;96.10;;;;;;5020513;28;20290;-93
2023/08/03 04:42:23;;;;;;;47.05;43.70;;;15.90;96.00;;;;;;5023531;28;20197;-93
2023/08/03 04:44:49;;;;;;;49.22;45.97;;;15.80;96.00;;;;;;5023956;28;20272;-93
2023/08/03 04:47:15;;;;;;;51.00;47.22;;;15.90;96.00;;;;;;5023495;28;20197;-92
2023/08/03 04:49:41;;;;;;;52.58;48.70;;;15.90;96.00;;;;;;5023352;28;20177;-92
2023/08/03 04:52:07;;;;;;;49.15;46.25;;;15.90;96.00;;;;;;5023689;28;20169;-93
2023/08/03 04:54:32;;;;;;;51.53;48.17;;;15.90;96.00;;;;;;5023730;28;20199;-91
2023/08/03 04:56:58;;;;;;;50.75;47.72;;;15.90;96.00;;;;;;5024067;28;20189;-92
2023/08/03 04:59:23;;;;;;;53.88;50.25;;;16.00;96.10;;;;;;5023937;28;20189;-92
2023/08/03 05:01:49;;;;;;;55.85;52.08;;;15.90;96.10;;;;;;5023978;28;20225;-93
2023/08/03 05:04:15;;;;;;;53.58;50.13;;;16.00;96.00;;;;;;5023393;28;20248;-90
2023/08/03 05:06:40;;;;;;;56.38;52.53;;;15.90;96.00;;;;;;5023715;28;20233;-92
2023/08/03 05:09:06;;;;;;;55.38;51.53;;;15.90;96.10;;;;;;5023712;28;20197;-92
2023/08/03 05:11:34;;;;;;;55.30;51.53;;;15.90;96.10;;;;;;5023842;28;20169;-91
2023/08/03 05:14:00;;;;;;;55.22;51.58;;;15.90;96.10;;;;;;5040494;28;20465;-90
2023/08/03 05:16:26;;;;;;;54.67;51.13;;;15.90;96.10;;;;;;5040570;28;20156;-91
2023/08/03 05:18:52;;;;;;;52.97;49.55;;;15.90;96.10;;;;;;5023535;28;20201;-91
2023/08/03 05:21:18;;;;;;;53.70;50.00;;;15.90;96.20;;;;;;5023444;28;20221;-92
2023/08/03 05:23:45;;;;;;;54.88;50.78;;;15.90;96.10;;;;;;5023170;28;20189;-91
2023/08/03 05:26:11;;;;;;;55.25;51.47;;;15.90;96.20;;;;;;5023220;28;20154;-93
2023/08/03 05:28:36;;;;;;;54.92;51.45;;;15.90;96.20;;;;;;5023305;28;20229;-91
2023/08/03 05:31:02;;;;;;;54.85;50.90;;;15.90;96.20;;;;;;5023300;28;20173;-92
2023/08/03 05:33:28;;;;;;;53.42;50.08;;;15.90;96.20;;;;;;5023151;28;20173;-92
2023/08/03 05:35:53;;;;;;;50.00;46.78;;;15.90;96.20;;;;;;5022746;28;20176;-90
2023/08/03 05:38:19;;;;;;;50.72;47.55;;;15.90;96.30;;;;;;5023099;28;20165;-90
2023/08/03 05:40:45;;;;;;;52.97;49.05;;;15.90;96.30;;;;;;5022622;28;20177;-94
2023/08/03 05:43:13;;;;;;;50.42;47.38;;;15.90;96.30;;;;;;5023014;28;20169;-90
2023/08/03 05:45:43;;;;;;;49.90;46.58;;;15.90;96.30;;;;;;5023033;28;20181;-93
2023/08/03 05:48:18;;;;;;;48.20;45.28;;;15.90;96.40;;;;;;5023084;28;20158;-92
2023/08/03 05:50:49;;;;;;;45.85;43.13;;;15.90;96.40;;;;;;5022972;28;20177;-92
2023/08/03 05:53:16;;;;;;;48.53;45.28;;;15.90;96.40;;;;;;5022662;28;20238;-93
2023/08/03 05:55:43;;;;;;;47.85;44.53;;;16.00;96.50;;;;;;5022844;28;20185;-90
2023/08/03 05:58:14;;;;;;;46.30;43.42;;;16.00;96.50;;;;;;5008037;28;20629;-91
2023/08/03 06:00:43;;;;;;;46.00;43.10;;;16.00;96.50;;;;;;5008128;28;20177;-91
2023/08/03 06:03:13;;;;;;;43.42;40.72;;;16.00;96.50;;;;;;5014861;28;20193;-93
2023/08/03 06:05:43;;;;;;;46.45;43.55;;;16.00;96.60;;;;;;5013713;28;20224;-93
2023/08/03 06:08:22;;;;;;;42.45;39.85;;;16.00;96.60;;;;;;5006987;28;20185;-93
2023/08/03 06:10:52;;;;;;;44.63;41.67;;;16.10;96.60;;;;;;5016957;28;20157;-92
2023/08/03 06:13:20;;;;;;;42.25;39.75;;;16.10;96.60;;;;;;5014990;28;20158;-93
2023/08/03 06:15:47;;;;;;;46.42;43.33;;;16.10;96.60;;;;;;5016878;28;20253;-93
2023/08/03 06:18:17;;;;;;;43.95;41.17;;;16.20;96.60;;;;;;5011289;28;20274;-92
2023/08/03 06:20:51;;;;;;;42.45;39.75;;;16.20;96.60;;;;;;5006812;28;20169;-93
2023/08/03 06:23:25;;;;;;;42.05;39.58;;;16.20;96.60;;;;;;5013183;28;20176;-93
2023/08/03 06:25:53;;;;;;;40.30;37.50;;;16.30;96.60;;;;;;5008639;28;20191;-93
2023/08/03 06:28:21;;;;;;;40.00;37.40;;;16.30;96.60;;;;;;5005834;28;20180;-93
2023/08/03 06:30:48;;;;;;;41.00;38.60;;;16.40;96.60;;;;;;5009297;28;20178;-93
2023/08/03 06:33:16;;;;;;;41.73;39.33;;;16.50;96.70;;;;;;5012805;28;20203;-93
2023/08/03 06:35:44;;;;;;;44.63;41.90;;;16.50;96.60;;;;;;5011113;28;20421;-93
2023/08/03 06:38:14;;;;;;;45.45;42.85;;;16.50;96.50;;;;;;5007940;28;20183;-92
2023/08/03 06:40:41;;;;;;;48.47;45.58;;;16.40;96.40;;;;;;5009431;28;20176;-93
2023/08/03 06:43:10;;;;;;;48.95;45.90;;;16.40;96.30;;;;;;5010797;28;20212;-93
2023/08/03 06:45:36;;;;;;;50.83;47.78;;;16.40;96.40;;;;;;5010883;28;20221;-93
2023/08/03 06:48:03;;;;;;;49.78;46.80;;;16.50;96.30;;;;;;5011032;28;20177;-93
2023/08/03 06:50:29;;;;;;;51.33;47.88;;;16.60;96.30;;;;;;5011231;28;20208;-93
2023/08/03 06:52:56;;;;;;;54.45;50.83;;;16.70;96.20;;;;;;5009471;28;20177;-93
2023/08/03 06:55:22;;;;;;;55.33;52.13;;;16.70;96.00;;;;;;5011158;28;20197;-93
2023/08/03 06:57:48;;;;;;;57.08;53.78;;;16.80;96.10;;;;;;5013117;28;20268;-93
2023/08/03 07:00:14;;;;;;;55.75;52.58;;;16.80;96.00;;;;;;5007715;28;20205;-93
2023/08/03 07:02:40;;;;;;;59.10;55.72;;;16.90;96.00;;;;;;5008699;28;20174;-92
2023/08/03 07:05:06;;;;;;;57.50;54.10;;;16.80;95.80;;;;;;5005496;28;20193;-93
2023/08/03 07:07:31;;;;;;;58.92;54.75;;;17.00;95.80;;;;;;5005346;28;20173;-93
2023/08/03 07:09:59;;;;;;;56.40;53.10;;;17.20;95.80;;;;;;5001492;28;20178;-92
2023/08/03 07:12:25;;;;;;;57.30;54.10;;;17.30;95.60;;;;;;4997238;28;20653;-91
2023/08/03 07:14:51;;;;;;;61.45;57.75;;;17.30;95.40;;;;;;4996435;28;20296;-92
2023/08/03 07:17:16;;;;;;;65.00;61.30;;;17.30;95.40;;;;;;4997019;28;20205;-92
2023/08/03 07:19:42;;;;;;;70.32;65.78;;;17.30;95.00;;;;;;4998084;28;20208;-92
2023/08/03 07:22:08;;;;;;;68.35;64.35;;;17.20;94.60;;;;;;4998545;28;20184;-92
2023/08/03 07:24:34;;;;;;;93.47;88.20;;;17.20;94.80;;;;;;4996836;28;20217;-92
2023/08/03 07:27:00;;;;;;;101.75;95.85;;;17.20;94.60;;;;;;5003398;28;20408;-93
2023/08/03 07:29:29;;;;;;;74.47;70.15;;;17.30;94.60;;;;;;5003192;28;20182;-93
2023/08/03 07:31:55;;;;;;;68.88;64.85;;;17.50;94.70;;;;;;5003414;28;20197;-93
2023/08/03 07:34:21;;;;;;;69.97;65.80;;;17.70;94.70;;;;;;5004917;28;20288;-93
2023/08/03 07:36:51;;;;;;;101.63;95.63;;;17.70;94.40;;;;;;5004146;28;20208;-93
2023/08/03 07:39:16;;;;;;;97.38;91.80;;;17.80;94.10;;;;;;5005382;28;20203;-92
2023/08/03 07:41:42;;;;;;;72.07;67.88;;;17.80;93.50;;;;;;5002262;28;20264;-93
2023/08/03 07:44:07;;;;;;;76.20;71.57;;;17.70;93.40;;;;;;4998916;28;20197;-92
2023/08/03 07:46:33;;;;;;;72.35;68.25;;;17.70;93.20;;;;;;5004348;28;20177;-93
2023/08/03 07:48:58;;;;;;;79.40;74.75;;;17.70;93.40;;;;;;5002035;28;20239;-93
2023/08/03 07:51:24;;;;;;;78.50;74.07;;;17.60;93.20;;;;;;4998764;28;20220;-92
2023/08/03 07:53:50;;;;;;;80.85;76.25;;;17.70;93.20;;;;;;5015251;28;20212;-92
2023/08/03 07:56:16;;;;;;;80.15;75.50;;;17.70;93.20;;;;;;4997696;28;20181;-93
2023/08/03 07:58:43;;;;;;;84.38;79.57;;;17.80;93.30;;;;;;4998601;28;20236;-93
2023/08/03 08:01:08;;;;;;;81.78;77.18;;;17.70;93.20;;;;;;5003794;28;20174;-93
2023/08/03 08:03:35;;;;;;;112.72;106.07;;;17.50;93.10;;;;;;5012908;28;20173;-92
2023/08/03 08:06:08;;;;;;;116.38;109.35;;;17.50;93.20;;;;;;4999822;28;20300;-93
2023/08/03 08:08:35;;;;;;;100.32;94.72;;;17.50;93.50;;;;;;5005510;28;20169;-92
2023/08/03 08:11:00;;;;;;;101.20;95.50;;;17.40;93.50;;;;;;5004498;28;20209;-92
2023/08/03 08:13:26;;;;;;;101.38;95.60;;;17.30;93.70;;;;;;5000614;28;20212;-93
2023/08/03 08:16:00;;;;;;;123.63;116.57;;;17.20;93.80;;;;;;5014806;28;20186;-93
2023/08/03 08:18:26;;;;;;;128.63;121.30;;;17.20;94.00;;;;;;5013482;28;20203;-93
2023/08/03 08:20:56;;;;;;;101.93;96.22;;;17.20;94.20;;;;;;5011768;28;20177;-93
2023/08/03 08:23:22;;;;;;;95.05;89.47;;;17.20;94.50;;;;;;5014627;28;20185;-93
2023/08/03 08:25:47;;;;;;;83.10;78.53;;;17.30;94.80;;;;;;5011565;28;20244;-93
2023/08/03 08:28:13;;;;;;;75.07;70.78;;;17.40;95.10;;;;;;5012718;28;20204;-93
2023/08/03 08:30:38;;;;;;;71.18;67.18;;;17.40;95.10;;;;;;5010120;28;20553;-92
2023/08/03 08:33:04;;;;;;;73.95;69.65;;;17.40;95.10;;;;;;5005372;28;20255;-93
2023/08/03 08:35:30;;;;;;;72.97;68.88;;;17.40;95.10;;;;;;5008240;28;20201;-93
2023/08/03 08:37:58;;;;;;;75.18;70.88;;;17.40;95.10;;;;;;5006435;28;20177;-93
2023/08/03 08:40:24;;;;;;;67.85;64.05;;;17.30;95.20;;;;;;5007061;28;20213;-93
2023/08/03 08:42:53;;;;;;;66.80;62.78;;;17.30;95.30;;;;;;5014502;28;20197;-93
2023/08/03 08:45:19;;;;;;;64.75;60.78;;;17.30;95.30;;;;;;5010677;28;20196;-93
2023/08/03 08:47:48;;;;;;;65.07;61.22;;;17.30;95.30;;;;;;5011834;28;20351;-94
2023/08/03 08:50:15;;;;;;;64.10;60.42;;;17.30;95.40;;;;;;5008866;28;20177;-93
2023/08/03 08:52:42;;;;;;;62.45;58.75;;;17.50;95.50;;;;;;5011127;28;20174;-93
2023/08/03 08:55:17;;;;;;;61.40;57.88;;;17.60;95.40;;;;;;5013107;28;20236;-93
2023/08/03 08:57:42;;;;;;;66.68;62.78;;;17.70;95.10;;;;;;5013501;28;20199;-93
2023/08/03 09:00:08;;;;;;;67.45;63.35;;;17.80;94.90;;;;;;5008223;28;20584;-93
2023/08/03 09:02:35;;;;;;;63.90;60.22;;;17.80;94.80;;;;;;5010976;28;20176;-93
2023/08/03 09:05:19;;;;;;;65.43;61.63;;;18.10;95.00;;;;;;5011601;28;20190;-93
2023/08/03 09:07:57;;;;;;;84.13;79.32;;;18.20;93.80;;;;;;5007892;28;20200;-92
2023/08/03 09:10:23;;;;;;;83.77;78.97;;;18.20;92.90;;;;;;5005083;28;20272;-92
2023/08/03 09:12:49;;;;;;;88.78;83.78;;;18.20;93.30;;;;;;5019985;28;20234;-92
2023/08/03 09:15:15;;;;;;;93.30;88.07;;;18.00;93.20;;;;;;5006425;28;25074;-92
2023/08/03 09:17:42;;;;;;;90.38;85.32;;;17.90;92.80;;;;;;5004598;28;20645;-92
2023/08/03 09:20:23;;;;;;;90.88;85.72;;;18.00;93.20;;;;;;5002075;28;20288;-92
2023/08/03 09:22:48;;;;;;;94.63;88.82;;;17.80;93.00;;;;;;5005279;28;20153;-92
2023/08/03 09:25:14;;;;;;;118.10;111.45;;;17.80;93.20;;;;;;5003378;28;20564;-89
2023/08/03 09:27:51;;;;;;;120.07;112.90;;;17.80;93.30;;;;;;4998705;28;20186;-91
2023/08/03 09:30:17;;;;;;;96.20;90.90;;;17.90;93.50;;;;;;4999421;28;20177;-92
2023/08/03 09:32:43;;;;;;;97.63;92.15;;;17.80;93.20;;;;;;4998225;28;20288;-91
2023/08/03 09:35:23;;;;;;;96.18;90.88;;;17.80;93.40;;;;;;5003918;28;20701;-93
2023/08/03 09:37:50;;;;;;;98.15;92.57;;;17.80;93.40;;;;;;5004131;28;20269;-92
2023/08/03 09:40:19;;;;;;;96.60;91.15;;;17.80;93.60;;;;;;5001445;28;20201;-92
2023/08/03 09:42:47;;;;;;;76.68;72.25;;;17.80;93.30;;;;;;4999253;28;20649;-90
2023/08/03 09:45:13;;;;;;;80.45;76.03;;;17.80;93.50;;;;;;5016264;28;20188;-91
2023/08/03 09:47:39;;;;;;;80.85;76.10;;;17.80;93.20;;;;;;5002716;28;20178;-92
2023/08/03 09:50:08;;;;;;;81.53;76.72;;;17.70;93.40;;;;;;5023499;28;20173;-93
2023/08/03 09:52:43;;;;;;;83.22;78.50;;;17.50;93.50;;;;;;5008810;28;20177;-93
2023/08/03 09:55:18;;;;;;;85.03;80.28;;;17.40;93.80;;;;;;5013795;28;20193;-94
2023/08/03 09:58:08;;;;;;;82.20;77.38;;;17.40;94.00;;;;;;5008903;28;20234;-93
2023/08/03 10:00:34;;;;;;;79.65;75.22;;;17.30;94.20;;;;;;5013620;28;20289;-92
2023/08/03 10:03:09;;;;;;;83.15;78.55;;;17.30;94.50;;;;;;5006801;28;20173;-93
2023/08/03 10:05:45;;;;;;;81.63;77.05;;;17.20;94.10;;;;;;5005945;28;20193;-92
2023/08/03 10:08:22;;;;;;;83.47;78.45;;;17.20;94.20;;;;;;5001421;28;20170;-93
2023/08/03 10:10:48;;;;;;;83.78;78.93;;;17.20;94.30;;;;;;5000277;28;20153;-93
2023/08/03 10:13:15;;;;;;;84.83;80.13;;;17.30;94.30;;;;;;5002526;28;20185;-93
2023/08/03 10:15:42;;;;;;;84.22;79.40;;;17.30;94.30;;;;;;5005339;28;20183;-92
2023/08/03 10:18:07;;;;;;;82.53;77.82;;;17.30;94.30;;;;;;4996577;28;20173;-88
2023/08/03 10:20:35;;;;;;;84.25;79.38;;;17.40;94.50;;;;;;4996204;28;20231;-88
2023/08/03 10:23:11;;;;;;;84.95;80.20;;;17.40;94.40;;;;;;5017292;28;20181;-92
2023/08/03 10:25:58;;;;;;;86.95;82.05;;;17.60;94.60;;;;;;5001193;28;20193;-91
2023/08/03 10:28:27;;;;;;;79.65;75.20;;;17.60;94.40;;;;;;4998603;28;20185;-91
2023/08/03 10:31:06;;;;;;;83.07;78.47;;;17.70;94.60;;;;;;4997742;28;20177;-91
2023/08/03 10:33:46;;;;;;;91.55;85.80;;;17.80;94.70;;;;;;4996385;28;20284;-93
2023/08/03 10:36:27;;;;;;;92.82;87.63;;;18.00;95.00;;;;;;5003610;28;20645;-92
2023/08/03 10:39:02;;;;;;;92.00;86.70;;;18.00;94.60;;;;;;4999818;28;20201;-92
2023/08/03 10:41:30;;;;;;;91.82;86.63;;;18.20;94.90;;;;;;5014432;28;20186;-91
2023/08/03 10:44:12;;;;;;;94.15;88.95;;;18.10;94.80;;;;;;5014303;28;20193;-91
2023/08/03 10:46:37;;;;;;;93.10;87.88;;;18.10;94.80;;;;;;5001201;28;20169;-92
2023/08/03 10:49:18;;;;;;;99.65;94.13;;;18.00;94.80;;;;;;5000184;28;20188;-93
2023/08/03 10:51:48;;;;;;;98.88;93.18;;;17.80;94.50;;;;;;4997306;28;20235;-92
2023/08/03 10:54:17;;;;;;;99.28;93.78;;;17.80;94.50;;;;;;4997803;28;20212;-92
2023/08/03 10:57:02;;;;;;;102.25;96.47;;;17.80;94.40;;;;;;4996818;28;20762;-92
2023/08/03 10:59:28;;;;;;;102.95;97.05;;;17.70;94.20;;;;;;4996597;28;20201;-92
2023/08/03 11:01:54;;;;;;;99.65;93.85;;;17.70;94.30;;;;;;5005471;28;20276;-92
2023/08/03 11:04:23;;;;;;;101.05;95.35;;;17.80;94.40;;;;;;5003649;28;20294;-90
2023/08/03 11:06:51;;;;;;;101.65;95.85;;;17.80;94.30;;;;;;4999895;28;20180;-92
2023/08/03 11:09:17;;;;;;;99.32;93.63;;;17.80;94.30;;;;;;4997927;28;20184;-92
2023/08/03 11:11:44;;;;;;;100.53;94.82;;;17.90;94.40;;;;;;5000448;28;20177;-93
2023/08/03 11:14:10;;;;;;;101.03;95.43;;;17.90;94.30;;;;;;5002133;28;20209;-93
2023/08/03 11:16:36;;;;;;;107.25;101.15;;;18.00;94.30;;;;;;5004952;28;20193;-92
2023/08/03 11:19:02;;;;;;;100.20;94.50;;;17.90;94.10;;;;;;5000686;28;20212;-93
2023/08/03 11:21:27;;;;;;;99.88;94.18;;;17.90;93.80;;;;;;5005888;28;20162;-93
2023/08/03 11:23:53;;;;;;;96.03;90.32;;;18.20;94.20;;;;;;5005379;28;20200;-93
2023/08/03 11:26:18;;;;;;;92.78;87.45;;;18.30;94.20;;;;;;5002107;28;20171;-93
2023/08/03 11:28:44;;;;;;;91.43;86.00;;;18.40;94.20;;;;;;5002658;28;20185;-94
2023/08/03 11:31:19;;;;;;;90.30;85.00;;;18.60;94.30;;;;;;4984193;28;20213;-92
2023/08/03 11:33:52;;;;;;;89.20;83.80;;;18.70;94.00;;;;;;5004017;28;20176;-91
2023/08/03 11:36:22;;;;;;;85.85;80.68;;;18.70;92.90;;;;;;5002850;28;20176;-92
2023/08/03 11:38:48;;;;;;;83.45;78.53;;;18.60;92.60;;;;;;5002863;28;20201;-92
2023/08/03 11:41:17;;;;;;;86.10;80.70;;;18.60;92.40;;;;;;5005548;28;20177;-92
2023/08/03 11:43:43;;;;;;;84.03;79.03;;;18.70;92.30;;;;;;5003550;28;20174;-92
2023/08/03 11:46:08;;;;;;;81.85;77.15;;;18.70;92.10;;;;;;5020251;28;20641;-91
2023/08/03 11:48:34;;;;;;;85.03;80.05;;;18.40;91.60;;;;;;5000828;28;20664;-92
2023/08/03 11:50:59;;;;;;;82.43;77.47;;;18.50;91.90;;;;;;5016968;28;20177;-91
2023/08/03 11:53:26;;;;;;;84.70;79.80;;;18.40;92.00;;;;;;5016541;28;20173;-90
2023/08/03 11:55:52;;;;;;;84.47;79.67;;;18.50;92.00;;;;;;4999662;28;20195;-91
2023/08/03 11:58:25;;;;;;;93.10;87.83;;;18.70;92.30;;;;;;4999646;28;20173;-91
2023/08/03 12:00:59;;;;;;;89.30;84.10;;;18.70;92.20;;;;;;5001025;28;20281;-92
2023/08/03 12:03:35;;;;;;;87.53;82.30;;;18.90;92.00;;;;;;5005387;28;20180;-92
2023/08/03 12:06:11;;;;;;;70.30;65.80;;;19.20;92.00;;;;;;5000450;28;20174;-91
2023/08/03 12:08:47;;;;;;;61.63;57.92;;;19.60;91.90;;;;;;5003114;28;20224;-91
2023/08/03 12:11:17;;;;;;;73.05;68.40;;;19.90;90.40;;;;;;5017536;28;20158;-91
2023/08/03 12:13:43;;;;;;;73.45;69.05;;;20.10;90.10;;;;;;5018845;28;20245;-91
2023/08/03 12:16:09;;;;;;;60.38;56.40;;;20.20;89.20;;;;;;5007608;28;20642;-93
2023/08/03 12:18:35;;;;;;;65.68;61.58;;;20.00;87.50;;;;;;5005740;28;20178;-92
2023/08/03 12:21:00;;;;;;;60.30;56.80;;;20.20;89.10;;;;;;5007827;28;20189;-92
2023/08/03 12:23:26;;;;;;;59.33;55.70;;;20.40;89.30;;;;;;5010754;28;20285;-92
2023/08/03 12:25:52;;;;;;;54.83;51.33;;;20.70;89.40;;;;;;5008215;28;20185;-92
2023/08/03 12:28:18;;;;;;;52.58;49.35;;;20.70;88.30;;;;;;5014094;28;20244;-93
2023/08/03 12:30:46;;;;;;;59.97;55.53;;;20.40;87.40;;;;;;5007342;28;20185;-93